Columbia Metropolitan Airport
KCAE : now visible

Airfield :











YOU CAN JOIN US ON...

 
LOGIN :

Register | Disclaimer

   EN    FR    IT 

 









Legend :    VFR   Marginal VFR   IFR   Intensive IFR   Very Intensive IFR
Visi :
Ceiling :
>= 8 km
>= 3000ft
5 to 8 km
1000 to 3000 ft
1500m to 5 km
500 to 1000 ft
800 to 1500m
200 to 500 ft
< 800m
< 200 ft
Symbols :   Thunderstorms  Fog  Heavy snow  Heavy precipitations  Wind > 20 kt






- Airport Elevation : 236 ft
- IATA code : CAE


KCAE - Columbia Metropolitan

CURRENT METAR :
  • 122256Z 03008KT 10SM BKN048 07/02 A3008 RMK AO2 SLP186 T00670017

EXPIRED METARs :
  • 122156Z 03009G15KT 10SM SCT015 BKN020 OVC035 07/03 A3005 RMK AO2 SLP177 T00670028
  • 122056Z 01007G16KT 10SM FEW014 OVC034 07/04 A3002 RMK AO2 RAE29 SLP165 P0000 60002 T00720039 51033
  • 122034Z VRB06KT 10SM FEW022 OVC032 07/04 A3001 RMK AO2 RAE29 P0000 T00720039

TAF KCAE
Valid from the 12 at 22:00 until the 13 at 18:00 UTC


122139Z 1222/1318 36013G23KT P6SM SCT015 OVC035
TEMPO 1222/1223 BKN015
FM130100 01011G22KT P6SM SKC
FM130900 02008KT P6SM SKC



MET'MAP, your aeronautical weather chart ! - Copyright ORBIFLY December 2007 - Disclaimer

ORBIFLY MET'MAP TEAM :

Programming & Development : Alexandra Zaïnal
Concept & Development : Baudouin d'Aumeries
Co-Development & Prog : Marc-Olivier Méhu
Technical & hardware support : Manuel Goepfert

Contact : metmap@orbifly.com




SOURCES & CREDITS :

   NOAA       Earth
Advisory